Time;durP1;ratioP1;P1;durP2;ratioP2;P2;SDS_P1;SDS_P2;PMS_P1;PMS_P2;Temp;Humidity;BMP_temperature;BMP_pressure;BME280_temperature;BME280_humidity;BME280_pressure;Samples;Min_cycle;Max_cycle;Signal;HPM_P1;HPM_P2
2022/01/09 00:02:25;;;;;;;4.38;3.42;;;2.50;99.90;;;;;;4278314;28;10000191;-72
2022/01/09 00:04:51;;;;;;;3.72;3.20;;;2.60;99.90;;;;;;4961234;28;20029;-71
2022/01/09 00:07:16;;;;;;;4.30;3.10;;;2.60;99.90;;;;;;4968625;28;20054;-72
2022/01/09 00:09:44;;;;;;;5.47;3.72;;;2.60;99.90;;;;;;4966228;28;20415;-72
2022/01/09 00:12:10;;;;;;;4.15;3.30;;;2.60;99.90;;;;;;4969046;28;20039;-72
2022/01/09 00:14:36;;;;;;;5.45;3.40;;;2.60;99.90;;;;;;4965822;28;20056;-72
2022/01/09 00:17:02;;;;;;;4.47;3.55;;;2.60;99.90;;;;;;4967294;28;20066;-72
2022/01/09 00:19:28;;;;;;;4.65;3.20;;;2.60;99.90;;;;;;4964374;28;20047;-72
2022/01/09 00:21:54;;;;;;;4.45;3.30;;;2.60;99.90;;;;;;4951469;28;20058;-72
2022/01/09 00:24:19;;;;;;;5.13;3.22;;;2.60;99.90;;;;;;4959620;28;20023;-71
2022/01/09 00:26:45;;;;;;;3.58;3.03;;;2.50;99.90;;;;;;4965368;28;20030;-72
2022/01/09 00:29:10;;;;;;;3.80;3.05;;;2.60;99.90;;;;;;4964202;28;20134;-72
2022/01/09 00:31:37;;;;;;;3.50;3.20;;;2.60;99.90;;;;;;4966307;28;20030;-71
2022/01/09 00:34:02;;;;;;;3.20;2.90;;;2.60;99.90;;;;;;4961905;28;20484;-72
2022/01/09 00:36:28;;;;;;;3.30;2.60;;;2.60;99.90;;;;;;4961923;28;20089;-71
2022/01/09 00:38:54;;;;;;;3.60;3.05;;;2.60;99.90;;;;;;4964017;28;20487;-71
2022/01/09 00:41:19;;;;;;;4.03;2.83;;;2.60;99.90;;;;;;4963924;28;20108;-72
2022/01/09 00:43:46;;;;;;;3.70;2.95;;;2.60;99.90;;;;;;4966541;28;20023;-71
2022/01/09 00:46:11;;;;;;;4.32;2.97;;;2.60;99.90;;;;;;4963785;28;20034;-71
2022/01/09 00:48:37;;;;;;;3.25;2.55;;;2.70;99.90;;;;;;4961839;28;20023;-71
2022/01/09 00:51:03;;;;;;;3.10;2.80;;;2.60;99.90;;;;;;4966965;28;20533;-72
2022/01/09 00:53:28;;;;;;;3.78;3.03;;;2.60;99.90;;;;;;4958787;28;20601;-72
2022/01/09 00:55:54;;;;;;;3.50;2.75;;;2.70;99.90;;;;;;4963147;28;20074;-72
2022/01/09 00:58:20;;;;;;;2.75;2.20;;;2.70;99.90;;;;;;4959637;28;20491;-72
2022/01/09 01:00:45;;;;;;;3.15;2.67;;;2.70;99.90;;;;;;4959780;28;20077;-71
2022/01/09 01:03:11;;;;;;;2.95;2.65;;;2.70;99.90;;;;;;4960742;28;20483;-72
2022/01/09 01:05:37;;;;;;;3.22;2.75;;;2.60;99.90;;;;;;4959464;28;20706;-72
2022/01/09 01:08:03;;;;;;;2.67;2.47;;;2.70;99.90;;;;;;4958038;28;20043;-71
2022/01/09 01:10:29;;;;;;;2.97;2.38;;;2.70;99.90;;;;;;4969969;28;20046;-72
2022/01/09 01:12:54;;;;;;;2.40;2.08;;;2.70;99.90;;;;;;4964768;28;20031;-72
2022/01/09 01:15:20;;;;;;;2.97;2.40;;;2.70;99.90;;;;;;4983392;28;20161;-72
2022/01/09 01:17:46;;;;;;;2.88;2.50;;;2.70;99.90;;;;;;4961608;28;20735;-72
2022/01/09 01:20:12;;;;;;;4.00;2.42;;;2.70;99.90;;;;;;4961860;28;20084;-72
2022/01/09 01:22:40;;;;;;;2.88;2.22;;;2.70;99.90;;;;;;4966222;28;20142;-71
2022/01/09 01:25:06;;;;;;;2.45;2.15;;;2.70;99.90;;;;;;4962166;28;20038;-72
2022/01/09 01:27:32;;;;;;;3.10;2.15;;;2.70;99.90;;;;;;4964788;28;20034;-71
2022/01/09 01:29:58;;;;;;;2.28;1.92;;;2.70;99.90;;;;;;4954572;28;20466;-71
2022/01/09 01:32:25;;;;;;;1.85;1.55;;;2.80;99.90;;;;;;4963371;28;20034;-72
2022/01/09 01:34:51;;;;;;;2.50;1.90;;;2.70;99.90;;;;;;4963942;28;20043;-71
2022/01/09 01:37:17;;;;;;;2.00;1.80;;;2.80;99.90;;;;;;4967370;28;20070;-71
2022/01/09 01:39:42;;;;;;;1.95;1.70;;;2.80;99.90;;;;;;4969349;28;20110;-71
2022/01/09 01:42:08;;;;;;;2.15;1.52;;;2.80;99.90;;;;;;4973477;28;20038;-72
2022/01/09 01:44:45;;;;;;;2.30;1.80;;;2.80;99.90;;;;;;4966228;28;20538;-71
2022/01/09 01:47:12;;;;;;;1.80;1.65;;;2.80;99.90;;;;;;4959867;28;20035;-71
2022/01/09 01:49:38;;;;;;;1.92;1.73;;;2.80;99.90;;;;;;4961201;28;20443;-72
2022/01/09 01:52:05;;;;;;;1.67;1.58;;;2.80;99.90;;;;;;4957509;28;20034;-72
2022/01/09 01:54:32;;;;;;;1.48;1.30;;;2.80;99.90;;;;;;4966679;28;20038;-71
2022/01/09 01:56:58;;;;;;;2.75;1.50;;;2.80;99.90;;;;;;4967209;28;20035;-71
2022/01/09 01:59:24;;;;;;;1.42;1.33;;;2.80;99.90;;;;;;4970857;28;20063;-71
2022/01/09 02:01:49;;;;;;;1.40;1.30;;;2.80;99.90;;;;;;4961662;28;20066;-72
2022/01/09 02:04:15;;;;;;;1.50;1.40;;;2.80;99.90;;;;;;4966764;28;20118;-72
2022/01/09 02:06:42;;;;;;;2.10;1.50;;;2.90;99.90;;;;;;4965687;28;20456;-72
2022/01/09 02:09:08;;;;;;;1.70;1.60;;;2.90;99.90;;;;;;4959682;28;20046;-72
2022/01/09 02:11:34;;;;;;;1.98;1.50;;;2.90;99.90;;;;;;4960800;28;20162;-73
2022/01/09 02:14:00;;;;;;;1.80;1.67;;;2.90;99.90;;;;;;4964525;28;20510;-72
2022/01/09 02:16:26;;;;;;;1.63;1.52;;;2.90;99.90;;;;;;4970294;28;20470;-71
2022/01/09 02:18:52;;;;;;;1.60;1.45;;;2.90;99.90;;;;;;4963863;28;20435;-72
2022/01/09 02:21:18;;;;;;;1.50;1.40;;;2.90;99.90;;;;;;4965075;28;20027;-72
2022/01/09 02:23:47;;;;;;;1.73;1.50;;;2.90;99.90;;;;;;4954053;28;20042;-72
2022/01/09 02:26:18;;;;;;;1.70;1.60;;;2.90;99.90;;;;;;4965548;28;20087;-73
2022/01/09 02:28:44;;;;;;;2.20;1.70;;;2.90;99.90;;;;;;4970574;28;20549;-72
2022/01/09 02:31:09;;;;;;;1.58;1.48;;;2.90;99.90;;;;;;4967757;28;20732;-71
2022/01/09 02:33:35;;;;;;;1.20;1.10;;;2.90;99.90;;;;;;4967944;28;20041;-72
2022/01/09 02:36:01;;;;;;;1.30;1.20;;;2.90;99.90;;;;;;4961666;28;20035;-72
2022/01/09 02:38:27;;;;;;;1.63;1.30;;;2.90;99.90;;;;;;4963284;28;20038;-72
2022/01/09 02:40:54;;;;;;;1.63;1.25;;;2.90;99.90;;;;;;4969104;28;20042;-72
2022/01/09 02:43:21;;;;;;;1.95;1.27;;;3.00;99.90;;;;;;4970958;28;20044;-71
2022/01/09 02:45:53;;;;;;;1.33;1.20;;;3.00;99.90;;;;;;4962411;28;20511;-71
2022/01/09 02:48:19;;;;;;;1.17;1.08;;;3.00;99.90;;;;;;4965233;28;20244;-71
2022/01/09 02:50:59;;;;;;;3.45;1.65;;;3.00;99.90;;;;;;4967600;28;20248;-71
2022/01/09 02:53:26;;;;;;;2.42;1.45;;;3.00;99.90;;;;;;4967334;28;20376;-72
2022/01/09 02:55:52;;;;;;;1.50;1.40;;;3.00;99.90;;;;;;4967000;28;20035;-71
2022/01/09 02:58:17;;;;;;;2.05;1.42;;;2.90;99.90;;;;;;4970275;28;20039;-71
2022/01/09 03:00:44;;;;;;;1.52;1.42;;;2.90;99.90;;;;;;4968428;28;20027;-72
2022/01/09 03:03:10;;;;;;;1.52;1.40;;;2.90;99.90;;;;;;4968763;28;20023;-72
2022/01/09 03:05:36;;;;;;;1.58;1.30;;;2.90;99.90;;;;;;4964499;28;20035;-72
2022/01/09 03:08:03;;;;;;;1.90;1.42;;;2.90;99.90;;;;;;4962969;28;20039;-71
2022/01/09 03:10:28;;;;;;;1.58;1.48;;;2.90;99.90;;;;;;4960981;28;20038;-71
2022/01/09 03:12:56;;;;;;;1.67;1.58;;;2.90;99.90;;;;;;4962154;28;20727;-71
2022/01/09 03:15:23;;;;;;;1.83;1.48;;;2.90;99.90;;;;;;4967734;28;20031;-71
2022/01/09 03:17:48;;;;;;;4.30;1.52;;;2.90;99.90;;;;;;4967321;28;20027;-71
2022/01/09 03:20:17;;;;;;;1.55;1.40;;;2.90;99.90;;;;;;4972270;28;20110;-71
2022/01/09 03:22:43;;;;;;;2.28;1.13;;;2.90;99.90;;;;;;4961766;28;20595;-71
2022/01/09 03:25:09;;;;;;;1.98;1.58;;;2.90;99.90;;;;;;4973932;28;20034;-71
2022/01/09 03:27:37;;;;;;;1.50;1.40;;;2.90;99.90;;;;;;4966203;28;20085;-71
2022/01/09 03:30:04;;;;;;;1.52;1.40;;;2.90;99.90;;;;;;4965637;28;20038;-71
2022/01/09 03:32:30;;;;;;;1.58;1.48;;;2.90;99.90;;;;;;4966262;28;20034;-71
2022/01/09 03:34:56;;;;;;;1.40;1.30;;;2.90;99.90;;;;;;4959088;28;20512;-71
2022/01/09 03:37:21;;;;;;;1.58;1.48;;;2.90;99.90;;;;;;4954076;28;20030;-71
2022/01/09 03:39:47;;;;;;;1.40;1.30;;;2.90;99.90;;;;;;4968465;28;20019;-72
2022/01/09 03:42:12;;;;;;;2.30;1.63;;;2.90;99.90;;;;;;4960679;28;20514;-71
2022/01/09 03:44:38;;;;;;;1.83;1.48;;;2.90;99.90;;;;;;4958892;28;20035;-71
2022/01/09 03:47:04;;;;;;;1.55;1.40;;;2.90;99.90;;;;;;4958296;28;20105;-71
2022/01/09 03:49:29;;;;;;;1.60;1.50;;;2.90;99.90;;;;;;4956847;28;20058;-71
2022/01/09 03:51:56;;;;;;;1.50;1.40;;;2.90;99.90;;;;;;4961632;28;20031;-72
2022/01/09 03:54:22;;;;;;;1.50;1.30;;;2.90;99.90;;;;;;4965603;28;20171;-72
2022/01/09 03:56:51;;;;;;;1.42;1.33;;;2.90;99.90;;;;;;4968163;28;20126;-71
2022/01/09 03:59:17;;;;;;;1.50;1.40;;;2.90;99.90;;;;;;4965584;28;20121;-70
2022/01/09 04:01:43;;;;;;;3.55;1.40;;;2.90;99.90;;;;;;4968643;28;20026;-70
2022/01/09 04:04:08;;;;;;;1.73;1.38;;;2.90;99.90;;;;;;4962892;28;20027;-71
2022/01/09 04:06:34;;;;;;;2.50;1.40;;;2.90;99.90;;;;;;4968333;28;20110;-72
2022/01/09 04:09:06;;;;;;;1.40;1.30;;;2.90;99.90;;;;;;4959761;28;20042;-71
2022/01/09 04:11:37;;;;;;;1.42;1.30;;;2.90;99.90;;;;;;4964856;28;20399;-71
2022/01/09 04:14:03;;;;;;;1.83;1.48;;;2.90;99.90;;;;;;4963231;28;20036;-71
2022/01/09 04:16:28;;;;;;;1.70;1.60;;;2.90;99.90;;;;;;4969431;28;20023;-71
2022/01/09 04:18:54;;;;;;;1.40;1.30;;;2.90;99.90;;;;;;4964025;28;20090;-72
2022/01/09 04:21:20;;;;;;;1.60;1.27;;;2.90;99.90;;;;;;4962355;28;20510;-72
2022/01/09 04:23:46;;;;;;;1.30;1.20;;;2.90;99.90;;;;;;4960328;28;20101;-71
2022/01/09 04:26:12;;;;;;;1.40;1.30;;;3.00;99.90;;;;;;4967121;28;20487;-71
2022/01/09 04:28:38;;;;;;;1.38;1.27;;;2.90;99.90;;;;;;4967007;28;20065;-72
2022/01/09 04:31:04;;;;;;;1.25;1.10;;;2.90;99.90;;;;;;4966380;28;20038;-71
2022/01/09 04:33:29;;;;;;;1.40;1.30;;;3.00;99.90;;;;;;4970170;28;20045;-71
2022/01/09 04:35:55;;;;;;;1.20;1.10;;;2.90;99.90;;;;;;4965237;28;20722;-71
2022/01/09 04:38:21;;;;;;;1.27;1.17;;;2.90;99.90;;;;;;4962724;28;20030;-71
2022/01/09 04:40:47;;;;;;;1.45;1.25;;;2.90;99.90;;;;;;4950598;28;20114;-71
2022/01/09 04:43:14;;;;;;;1.88;1.63;;;3.00;99.90;;;;;;4962084;28;20027;-71
2022/01/09 04:45:39;;;;;;;1.52;1.42;;;2.90;99.90;;;;;;4959025;28;20031;-71
2022/01/09 04:48:08;;;;;;;1.55;1.42;;;2.90;99.90;;;;;;4971076;28;20031;-72
2022/01/09 04:50:36;;;;;;;1.20;1.10;;;2.90;99.90;;;;;;4964629;28;20031;-72
2022/01/09 04:53:05;;;;;;;2.08;1.88;;;2.90;99.90;;;;;;4959200;28;20039;-71
2022/01/09 04:55:37;;;;;;;1.70;1.60;;;2.90;99.90;;;;;;4965651;28;20070;-71
2022/01/09 04:58:04;;;;;;;1.58;1.48;;;2.90;99.90;;;;;;4964008;28;20039;-71
2022/01/09 05:00:29;;;;;;;1.73;1.63;;;2.80;99.90;;;;;;4961480;28;20522;-71
2022/01/09 05:02:55;;;;;;;2.00;1.80;;;2.80;99.90;;;;;;4961713;28;20034;-72
2022/01/09 05:05:21;;;;;;;1.60;1.50;;;2.80;99.90;;;;;;4963775;28;20499;-71
2022/01/09 05:07:47;;;;;;;2.17;1.80;;;2.80;99.90;;;;;;4963319;28;20104;-71
2022/01/09 05:10:13;;;;;;;1.40;1.30;;;2.80;99.90;;;;;;4965693;28;20502;-72
2022/01/09 05:12:38;;;;;;;2.63;1.33;;;2.70;99.90;;;;;;4962964;28;20487;-71
2022/01/09 05:15:06;;;;;;;1.80;1.70;;;2.70;99.90;;;;;;4964368;28;20244;-71
2022/01/09 05:17:32;;;;;;;3.63;1.48;;;2.70;99.90;;;;;;4961592;28;20557;-71
2022/01/09 05:19:57;;;;;;;1.90;1.40;;;2.70;99.90;;;;;;4958650;28;20038;-71
2022/01/09 05:22:30;;;;;;;1.60;1.50;;;2.70;99.90;;;;;;4958189;28;20102;-71
2022/01/09 05:25:02;;;;;;;1.60;1.50;;;2.70;99.90;;;;;;4961827;28;20027;-71
2022/01/09 05:27:28;;;;;;;2.45;1.40;;;2.70;99.90;;;;;;4960523;28;20038;-71
2022/01/09 05:29:54;;;;;;;1.27;1.17;;;2.60;99.90;;;;;;4954496;28;21688;-71
2022/01/09 05:32:20;;;;;;;1.60;1.50;;;2.60;99.90;;;;;;4960803;28;20049;-71
2022/01/09 05:34:46;;;;;;;2.22;1.25;;;2.60;99.90;;;;;;4957620;28;20035;-71
2022/01/09 05:37:12;;;;;;;1.42;1.30;;;2.60;99.90;;;;;;4963789;28;20088;-71
2022/01/09 05:39:37;;;;;;;1.70;1.60;;;2.60;99.90;;;;;;4967280;28;20055;-71
2022/01/09 05:42:06;;;;;;;2.13;1.20;;;2.50;99.90;;;;;;4954471;28;20023;-71
2022/01/09 05:44:34;;;;;;;1.77;1.30;;;2.60;99.90;;;;;;4957276;28;20050;-71
2022/01/09 05:47:01;;;;;;;1.55;1.45;;;2.60;99.90;;;;;;4961617;28;20051;-71
2022/01/09 05:49:27;;;;;;;1.80;1.60;;;2.50;99.90;;;;;;4960318;28;20530;-72
2022/01/09 05:51:54;;;;;;;2.13;1.52;;;2.50;99.90;;;;;;4953880;28;20479;-71
2022/01/09 05:54:20;;;;;;;1.73;1.63;;;2.50;99.90;;;;;;4958235;28;20035;-71
2022/01/09 05:56:47;;;;;;;3.92;1.50;;;2.50;99.90;;;;;;4960990;28;20033;-72
2022/01/09 05:59:12;;;;;;;1.63;1.30;;;2.50;99.90;;;;;;4965429;28;20035;-71
2022/01/09 06:01:38;;;;;;;3.88;2.42;;;2.50;99.90;;;;;;4967037;28;20038;-71
2022/01/09 06:04:05;;;;;;;2.10;1.90;;;2.50;99.90;;;;;;4963100;28;20179;-71
2022/01/09 06:06:31;;;;;;;1.77;1.65;;;2.50;99.90;;;;;;4967321;28;20479;-71
2022/01/09 06:08:57;;;;;;;1.88;1.58;;;2.50;99.90;;;;;;4960665;28;20071;-71
2022/01/09 06:11:23;;;;;;;4.20;1.70;;;2.50;99.90;;;;;;4959964;28;20027;-71
2022/01/09 06:13:48;;;;;;;2.25;2.05;;;2.50;99.90;;;;;;4976075;28;20170;-72
2022/01/09 06:16:14;;;;;;;4.93;3.60;;;2.50;99.90;;;;;;4973934;28;20031;-71
2022/01/09 06:18:40;;;;;;;4.13;3.60;;;2.50;99.90;;;;;;4957632;28;20554;-72
2022/01/09 06:21:05;;;;;;;4.55;3.88;;;2.40;99.90;;;;;;4959765;28;20023;-71
2022/01/09 06:23:31;;;;;;;2.95;2.65;;;2.40;99.90;;;;;;4955590;28;20546;-71
2022/01/09 06:25:56;;;;;;;3.38;2.92;;;2.40;99.90;;;;;;4969094;28;20027;-71
2022/01/09 06:28:22;;;;;;;2.50;2.30;;;2.30;99.90;;;;;;4956487;28;20395;-72
2022/01/09 06:30:48;;;;;;;2.90;2.50;;;2.30;99.90;;;;;;4967978;28;20157;-71
2022/01/09 06:33:14;;;;;;;4.05;2.90;;;2.30;99.90;;;;;;4968797;28;20120;-71
2022/01/09 06:35:40;;;;;;;3.10;2.50;;;2.30;99.90;;;;;;4968704;28;20027;-71
2022/01/09 06:38:07;;;;;;;4.80;2.30;;;2.30;99.90;;;;;;4959181;28;20065;-71
2022/01/09 06:40:34;;;;;;;3.85;2.50;;;2.20;99.90;;;;;;4965558;28;20035;-72
2022/01/09 06:42:59;;;;;;;2.50;1.95;;;2.20;99.90;;;;;;4961727;28;20031;-72
2022/01/09 06:45:26;;;;;;;2.53;1.83;;;2.20;99.90;;;;;;4969128;28;20037;-71
2022/01/09 06:47:53;;;;;;;2.97;2.42;;;2.10;99.90;;;;;;4967629;28;20399;-72
2022/01/09 06:50:19;;;;;;;2.50;2.30;;;2.10;99.90;;;;;;4969981;28;20110;-71
2022/01/09 06:52:44;;;;;;;2.70;2.20;;;2.00;99.90;;;;;;4965171;28;20023;-72
2022/01/09 06:55:11;;;;;;;2.97;2.38;;;2.00;99.90;;;;;;4966263;28;20037;-71
2022/01/09 06:57:37;;;;;;;4.97;2.92;;;2.00;99.90;;;;;;4961151;28;20043;-71
2022/01/09 07:00:05;;;;;;;6.28;4.40;;;2.00;99.90;;;;;;4965220;28;20407;-71
2022/01/09 07:02:30;;;;;;;3.63;2.53;;;1.90;99.90;;;;;;4957821;28;20139;-71
2022/01/09 07:04:56;;;;;;;2.95;2.55;;;1.90;99.90;;;;;;4959090;28;20039;-71
2022/01/09 07:07:22;;;;;;;2.58;2.30;;;1.80;99.90;;;;;;4958610;28;20038;-70
2022/01/09 07:09:47;;;;;;;4.13;2.70;;;1.90;99.90;;;;;;4959489;28;20145;-71
2022/01/09 07:12:13;;;;;;;2.67;2.10;;;1.80;99.90;;;;;;4970885;28;20093;-71
2022/01/09 07:14:38;;;;;;;3.95;2.90;;;1.70;99.90;;;;;;4962092;28;20097;-71
2022/01/09 07:17:04;;;;;;;3.53;3.10;;;1.70;99.90;;;;;;4961492;28;20030;-71
2022/01/09 07:19:30;;;;;;;3.75;3.15;;;1.60;99.90;;;;;;4960310;28;20027;-70
2022/01/09 07:21:55;;;;;;;2.33;2.13;;;1.60;99.90;;;;;;4963629;28;20030;-71
2022/01/09 07:24:21;;;;;;;3.00;2.65;;;1.60;99.90;;;;;;4964289;28;20495;-71
2022/01/09 07:26:47;;;;;;;4.30;3.35;;;1.60;99.90;;;;;;4961329;28;20126;-71
2022/01/09 07:29:13;;;;;;;6.97;4.28;;;1.60;99.90;;;;;;4964464;28;20089;-71
2022/01/09 07:31:38;;;;;;;8.93;5.53;;;1.70;99.90;;;;;;4962964;28;20038;-71
2022/01/09 07:34:04;;;;;;;4.95;4.07;;;1.70;99.90;;;;;;4961916;28;20039;-72
2022/01/09 07:36:30;;;;;;;7.43;4.80;;;1.70;99.90;;;;;;4959229;28;20059;-71
2022/01/09 07:38:55;;;;;;;10.70;6.45;;;1.70;99.90;;;;;;4962718;28;20154;-71
2022/01/09 07:41:21;;;;;;;8.35;6.00;;;1.70;99.90;;;;;;4961084;28;20026;-71
2022/01/09 07:43:47;;;;;;;8.68;5.30;;;1.70;99.90;;;;;;4961131;28;20099;-70
2022/01/09 07:46:13;;;;;;;6.35;4.50;;;1.70;99.90;;;;;;4956705;28;20037;-70
2022/01/09 07:48:39;;;;;;;6.20;3.90;;;1.70;99.90;;;;;;4959772;28;20030;-71
2022/01/09 07:51:05;;;;;;;11.32;7.65;;;1.70;99.90;;;;;;4958867;28;20096;-71
2022/01/09 07:53:31;;;;;;;15.50;9.65;;;1.70;99.90;;;;;;4268781;28;10001010;-70
2022/01/09 07:55:57;;;;;;;14.43;12.43;;;1.70;99.90;;;;;;4947995;28;20540;-71
2022/01/09 07:58:23;;;;;;;9.30;8.18;;;1.80;99.90;;;;;;4951241;28;20049;-73
2022/01/09 08:00:48;;;;;;;11.32;8.88;;;1.70;99.90;;;;;;4949754;28;20518;-72
2022/01/09 08:03:15;;;;;;;14.50;12.25;;;1.80;99.90;;;;;;4961244;28;20181;-72
2022/01/09 08:05:41;;;;;;;9.48;7.93;;;1.80;99.90;;;;;;4960240;28;20038;-72
2022/01/09 08:08:07;;;;;;;11.65;8.48;;;1.80;99.90;;;;;;4959879;28;20049;-72
2022/01/09 08:10:33;;;;;;;6.80;6.05;;;1.80;99.90;;;;;;4958234;28;20043;-72
2022/01/09 08:13:00;;;;;;;8.05;4.95;;;1.80;99.90;;;;;;4955422;28;20085;-72
2022/01/09 08:15:28;;;;;;;5.03;4.40;;;1.90;99.90;;;;;;4952115;28;20098;-72
2022/01/09 08:17:54;;;;;;;8.07;5.80;;;1.90;99.90;;;;;;4968399;28;20140;-73
2022/01/09 08:20:20;;;;;;;6.13;5.32;;;1.90;99.90;;;;;;4956085;28;20053;-72
2022/01/09 08:22:46;;;;;;;6.70;5.35;;;1.90;99.90;;;;;;4958662;28;20101;-72
2022/01/09 08:25:13;;;;;;;5.18;4.35;;;2.00;99.90;;;;;;4950478;28;20047;-72
2022/01/09 08:27:39;;;;;;;3.92;3.50;;;2.00;99.90;;;;;;4960289;28;20508;-73
2022/01/09 08:30:07;;;;;;;3.78;3.35;;;2.00;99.90;;;;;;4964444;28;20039;-72
2022/01/09 08:32:33;;;;;;;3.92;3.30;;;2.10;99.90;;;;;;4959359;28;20121;-72
2022/01/09 08:34:59;;;;;;;5.18;3.53;;;2.10;99.90;;;;;;4960626;28;20062;-72
2022/01/09 08:37:25;;;;;;;5.90;3.22;;;2.20;99.90;;;;;;4953822;28;20730;-72
2022/01/09 08:39:50;;;;;;;2.53;2.05;;;2.20;99.90;;;;;;4964371;28;20034;-72
2022/01/09 08:42:16;;;;;;;2.45;2.25;;;2.20;99.90;;;;;;4961665;28;20820;-72
2022/01/09 08:44:41;;;;;;;2.10;1.80;;;2.30;99.90;;;;;;4961596;28;20062;-72
2022/01/09 08:47:09;;;;;;;15.02;9.55;;;2.40;99.90;;;;;;4972629;28;20061;-72
2022/01/09 08:49:36;;;;;;;18.48;13.55;;;2.40;99.90;;;;;;4965731;28;20031;-72
2022/01/09 08:52:02;;;;;;;11.02;7.30;;;2.50;99.90;;;;;;4958885;28;20031;-73
2022/01/09 08:54:30;;;;;;;13.38;8.15;;;2.50;99.90;;;;;;4956720;28;20062;-72
2022/01/09 08:56:56;;;;;;;10.85;8.23;;;2.60;99.90;;;;;;4960570;28;20407;-72
2022/01/09 08:59:22;;;;;;;19.40;13.45;;;2.60;99.90;;;;;;4951262;28;20023;-72
2022/01/09 09:01:48;;;;;;;23.02;16.65;;;2.60;99.90;;;;;;4952364;28;20050;-73
2022/01/09 09:04:15;;;;;;;18.98;13.60;;;2.60;99.90;;;;;;4959125;28;20090;-72
2022/01/09 09:06:41;;;;;;;20.70;15.57;;;2.60;99.90;;;;;;4962489;28;20030;-72
2022/01/09 09:09:08;;;;;;;18.35;11.05;;;2.70;99.90;;;;;;4960831;28;20054;-72
2022/01/09 09:11:35;;;;;;;14.23;9.50;;;2.70;99.90;;;;;;4965529;28;20101;-72
2022/01/09 09:14:02;;;;;;;18.45;12.23;;;2.80;99.90;;;;;;4950323;28;20027;-72
2022/01/09 09:16:28;;;;;;;14.85;8.70;;;2.80;99.90;;;;;;4950228;28;20077;-72
2022/01/09 09:18:54;;;;;;;10.48;6.97;;;2.80;99.90;;;;;;4961522;28;20172;-72
2022/01/09 09:21:19;;;;;;;9.50;6.80;;;2.80;99.90;;;;;;4957751;28;20498;-72
2022/01/09 09:23:45;;;;;;;9.38;7.22;;;2.80;99.90;;;;;;4959271;28;20023;-71
2022/01/09 09:26:12;;;;;;;7.28;4.60;;;2.80;99.90;;;;;;4958478;28;20038;-72
2022/01/09 09:28:38;;;;;;;6.32;4.57;;;2.90;99.90;;;;;;4959814;28;20407;-72
2022/01/09 09:31:04;;;;;;;6.70;3.80;;;2.90;99.90;;;;;;4953377;28;20035;-72
2022/01/09 09:33:30;;;;;;;7.10;5.15;;;2.90;99.90;;;;;;4952119;28;20031;-72
2022/01/09 09:36:00;;;;;;;6.57;3.70;;;2.90;99.90;;;;;;4962656;28;20031;-72
2022/01/09 09:38:26;;;;;;;10.00;7.07;;;2.90;99.90;;;;;;4960362;28;20034;-72
2022/01/09 09:40:52;;;;;;;6.32;4.15;;;3.00;99.90;;;;;;4966471;28;20074;-72
2022/01/09 09:43:19;;;;;;;8.27;5.35;;;3.00;99.90;;;;;;4960020;28;20066;-72
2022/01/09 09:45:44;;;;;;;11.13;7.40;;;3.00;99.90;;;;;;4957505;28;20035;-72
2022/01/09 09:48:10;;;;;;;14.07;8.75;;;3.00;99.90;;;;;;4953477;28;20065;-72
2022/01/09 09:50:35;;;;;;;13.90;9.10;;;3.10;99.90;;;;;;4955917;28;20031;-72
2022/01/09 09:53:02;;;;;;;10.02;6.28;;;3.20;99.90;;;;;;4957421;28;20058;-72
2022/01/09 09:55:28;;;;;;;8.82;6.32;;;3.30;99.90;;;;;;4961539;28;20522;-72
2022/01/09 09:57:54;;;;;;;12.63;7.82;;;3.30;99.90;;;;;;4958966;28;20043;-71
2022/01/09 10:00:20;;;;;;;7.05;5.10;;;3.30;99.90;;;;;;4958179;28;20475;-72
2022/01/09 10:02:51;;;;;;;6.85;3.78;;;;;;;;;;4956293;28;20074;-71
2022/01/09 10:05:21;;;;;;;6.05;3.70;;;;;;;;;;4958975;28;20197;-72
2022/01/09 10:07:48;;;;;;;6.82;3.60;;;;;;;;;;4961939;28;20027;-72
2022/01/09 10:10:18;;;;;;;6.20;2.88;;;;;;;;;;4969083;28;20042;-72
2022/01/09 10:12:45;;;;;;;5.45;3.50;;;;;;;;;;4963062;28;20402;-71
2022/01/09 10:15:12;;;;;;;7.90;4.63;;;;;;;;;;4957746;28;20078;-72
2022/01/09 10:17:56;;;;;;;3.13;2.15;;;;;;;;;;4960839;28;20031;-71
2022/01/09 10:20:24;;;;;;;7.38;3.75;;;;;;;;;;4959421;28;20054;-72
2022/01/09 10:22:55;;;;;;;4.22;2.55;;;;;;;;;;4962983;28;20026;-72
2022/01/09 10:25:27;;;;;;;9.93;5.30;;;;;;;;;;4961003;28;20750;-73
2022/01/09 10:28:00;;;;;;;4.17;2.30;;;;;;;;;;4967341;28;20035;-72
2022/01/09 10:30:28;;;;;;;16.23;8.20;;;;;;;;;;4956503;28;20099;-72
2022/01/09 10:32:56;;;;;;;13.63;8.35;;;;;;;;;;4955694;28;20276;-72
2022/01/09 10:35:22;;;;;;;18.75;12.13;;;;;;;;;;4957898;28;20059;-71
2022/01/09 10:37:50;;;;;;;13.50;7.82;;;;;;;;;;4961483;28;20049;-71
2022/01/09 10:40:20;;;;;;;17.80;11.50;;;;;;;;;;4957571;28;20475;-71
2022/01/09 10:43:00;;;;;;;12.35;9.27;;;;;;;;;;4962813;28;20039;-71
2022/01/09 10:45:26;;;;;;;9.10;5.97;;;;;;;;;;4959112;28;20110;-72
2022/01/09 10:47:56;;;;;;;9.90;6.47;;;;;;;;;;4961999;28;20145;-72
2022/01/09 10:50:27;;;;;;;9.52;5.80;;;;;;;;;;4962037;28;20557;-72
2022/01/09 10:52:53;;;;;;;14.35;5.45;;;;;;;;;;4959491;28;20034;-72
2022/01/09 10:55:19;;;;;;;11.20;7.00;;;;;;;;;;4966250;28;20054;-72
2022/01/09 10:57:45;;;;;;;14.43;7.72;;;;;;;;;;4964360;28;20122;-72
2022/01/09 11:00:15;;;;;;;14.32;7.60;;;;;;;;;;4959860;28;20815;-72
2022/01/09 11:02:44;;;;;;;11.85;6.85;;;3.70;99.90;;;;;;4962830;28;20027;-72
2022/01/09 11:05:09;;;;;;;15.32;9.23;;;3.70;99.90;;;;;;4961741;28;20035;-72
2022/01/09 11:07:36;;;;;;;18.40;7.20;;;3.60;99.90;;;;;;4948059;28;20026;-72
2022/01/09 11:10:07;;;;;;;16.60;7.97;;;3.60;99.90;;;;;;4934997;28;20055;-72
2022/01/09 11:12:42;;;;;;;16.40;7.15;;;3.60;99.90;;;;;;4936831;28;20046;-72
2022/01/09 11:15:09;;;;;;;21.85;8.00;;;3.60;99.90;;;;;;4942934;28;20289;-72
2022/01/09 11:17:35;;;;;;;17.98;8.20;;;3.70;99.90;;;;;;4946403;28;20559;-72
2022/01/09 11:20:01;;;;;;;23.60;8.63;;;3.60;99.90;;;;;;4933366;28;20110;-72
2022/01/09 11:22:28;;;;;;;21.35;9.15;;;3.70;99.90;;;;;;4932694;28;20566;-72
2022/01/09 11:25:13;;;;;;;17.67;9.35;;;3.70;99.90;;;;;;4935631;28;20050;-72
2022/01/09 11:28:01;;;;;;;24.25;9.45;;;3.70;99.90;;;;;;4944042;29;20069;-73
2022/01/09 11:30:49;;;;;;;25.63;10.20;;;3.70;99.90;;;;;;4940346;28;20035;-73
2022/01/09 11:33:46;;;;;;;26.80;11.48;;;3.70;99.90;;;;;;4941840;28;20091;-73
2022/01/09 11:36:18;;;;;;;23.40;9.40;;;3.70;99.90;;;;;;4943748;28;20046;-71
2022/01/09 11:39:23;;;;;;;21.13;9.05;;;3.80;99.90;;;;;;4947529;28;20035;-73
2022/01/09 11:42:09;;;;;;;15.15;8.48;;;3.80;99.90;;;;;;4933961;28;20032;-72
2022/01/09 11:44:43;;;;;;;19.35;7.70;;;3.80;99.90;;;;;;4942085;28;20602;-72
2022/01/09 11:47:09;;;;;;;24.98;10.82;;;3.80;99.90;;;;;;4938214;28;20031;-72
2022/01/09 11:49:59;;;;;;;20.13;9.05;;;3.80;99.90;;;;;;4940210;28;20034;-72
2022/01/09 11:52:29;;;;;;;18.92;7.60;;;3.80;99.90;;;;;;4936588;28;20043;-73
2022/01/09 11:55:00;;;;;;;20.73;8.20;;;3.80;99.90;;;;;;4944225;28;20156;-73
2022/01/09 11:57:48;;;;;;;23.95;7.43;;;3.80;99.90;;;;;;4932183;28;20038;-72
2022/01/09 12:00:35;;;;;;;19.58;8.05;;;3.80;99.90;;;;;;4939287;28;20150;-73
2022/01/09 12:03:27;;;;;;;19.40;7.93;;;3.80;99.90;;;;;;4937940;28;20038;-74
2022/01/09 12:06:05;;;;;;;17.08;8.05;;;3.90;99.90;;;;;;4936865;29;20550;-74
2022/01/09 12:08:52;;;;;;;20.70;6.90;;;3.90;99.90;;;;;;4944310;28;20074;-73
2022/01/09 12:11:18;;;;;;;23.27;7.20;;;3.90;99.90;;;;;;4959506;28;20069;-73
2022/01/09 12:13:44;;;;;;;23.92;8.50;;;3.90;99.90;;;;;;4955502;28;20066;-72
2022/01/09 12:16:30;;;;;;;24.45;8.65;;;4.00;99.90;;;;;;4962416;28;20141;-73
2022/01/09 12:18:55;;;;;;;17.75;7.57;;;4.00;99.90;;;;;;4958473;28;20043;-72
2022/01/09 12:21:39;;;;;;;20.73;6.50;;;4.00;99.90;;;;;;4959523;28;20040;-73
2022/01/09 12:24:43;;;;;;;16.73;7.25;;;4.00;99.90;;;;;;4960358;28;20033;-72
2022/01/09 12:27:44;;;;;;;16.35;6.68;;;4.00;99.90;;;;;;4953418;28;20142;-73
2022/01/09 12:30:40;;;;;;;18.13;7.13;;;4.10;99.90;;;;;;4954645;28;20566;-73
2022/01/09 12:33:09;;;;;;;14.20;5.55;;;4.10;99.90;;;;;;4949683;28;20549;-73
2022/01/09 12:35:40;;;;;;;18.00;5.80;;;4.10;99.90;;;;;;4956962;28;20026;-73
2022/01/09 12:38:06;;;;;;;19.90;6.47;;;4.10;99.90;;;;;;4955606;28;20853;-73
2022/01/09 12:40:35;;;;;;;20.85;6.53;;;4.20;99.90;;;;;;4953871;28;20058;-74
2022/01/09 12:43:03;;;;;;;13.95;5.80;;;4.20;99.90;;;;;;4960284;28;20071;-73
2022/01/09 12:45:37;;;;;;;15.57;5.30;;;4.20;99.90;;;;;;4960158;28;20058;-73
2022/01/09 12:48:05;;;;;;;19.08;6.05;;;4.30;99.90;;;;;;4960137;28;20479;-73
2022/01/09 12:50:38;;;;;;;17.10;5.85;;;4.30;99.90;;;;;;4960386;28;20720;-74
2022/01/09 12:53:18;;;;;;;13.10;5.82;;;4.30;99.90;;;;;;4960188;28;20144;-74
2022/01/09 12:56:01;;;;;;;15.25;6.72;;;4.30;99.90;;;;;;4953455;28;20030;-73
2022/01/09 12:58:27;;;;;;;17.10;6.32;;;4.40;99.90;;;;;;4953317;28;20122;-73
2022/01/09 13:00:52;;;;;;;17.08;6.63;;;4.40;99.90;;;;;;4956428;28;20074;-73
2022/01/09 13:03:21;;;;;;;21.52;7.22;;;4.40;99.90;;;;;;4953762;28;20031;-74
2022/01/09 13:05:55;;;;;;;24.63;6.32;;;4.50;99.90;;;;;;4956368;28;20146;-75